CheckWX is a tool to help pilots better visualize weather data.  It is not intended as a substitute for an official pre-flight weather briefing.

17:27:40 UTC

AZUH METAR
Nakhchivan
Nakhchivan, Azerbaijan
Current

37 mins ago

AZUH 211651Z 32004KT CAVOK 33/11 Q1009
Observed
Jul-21 @ 16:51 UTC
Wind
  • 320° at 4 KTS
Visibility
10,000+ meters
Flight Rules
VFR
Cloud Levels
  • Clear skies
Temperature
33°C / 91°F
Dewpoint
11°C / 52°F
Humidity
26%
Altimeter
29.79" Hg
Pressure
1008.92 hPa
Previous

2 hours ago

AZUH 211550Z 33004KT 9999 FEW040 36/11 Q1009
Observed
Jul-21 @ 15:50 UTC
Wind
  • 330° at 4 KTS
Visibility
10,000+ meters
Flight Rules
VFR
Cloud Levels
  • Few at 4,000' AGL
Temperature
36°C / 97°F
Dewpoint
11°C / 52°F
Humidity
22%
Altimeter
29.79" Hg
Pressure
1008.92 hPa
Previous

4 hours ago

AZUH 211350Z 00000KT 9999 FEW040 37/13 Q1010
Observed
Jul-21 @ 13:50 UTC
Visibility
10,000+ meters
Flight Rules
VFR
Cloud Levels
  • Few at 4,000' AGL
Temperature
37°C / 99°F
Dewpoint
13°C / 55°F
Humidity
24%
Altimeter
29.82" Hg
Pressure
1009.92 hPa